sensor_id;sensor_type;location;lat;lon;timestamp;P1;durP1;ratioP1;P2;durP2;ratioP2
63434;SDS011;68814;50.872;5.306;2023-11-19T00:00:26;1.95;;;1.30;;
63434;SDS011;68814;50.872;5.306;2023-11-19T00:02:52;3.17;;;1.35;;
63434;SDS011;68814;50.872;5.306;2023-11-19T00:05:18;3.40;;;1.50;;
63434;SDS011;68814;50.872;5.306;2023-11-19T00:07:43;1.98;;;1.48;;
63434;SDS011;68814;50.872;5.306;2023-11-19T00:10:10;2.40;;;1.85;;
63434;SDS011;68814;50.872;5.306;2023-11-19T00:12:37;2.80;;;1.85;;
63434;SDS011;68814;50.872;5.306;2023-11-19T00:15:05;5.03;;;2.10;;
63434;SDS011;68814;50.872;5.306;2023-11-19T00:17:31;4.78;;;2.15;;
63434;SDS011;68814;50.872;5.306;2023-11-19T00:20:05;4.55;;;2.03;;
63434;SDS011;68814;50.872;5.306;2023-11-19T00:22:31;4.28;;;1.58;;
63434;SDS011;68814;50.872;5.306;2023-11-19T00:24:57;3.33;;;2.60;;
63434;SDS011;68814;50.872;5.306;2023-11-19T00:27:24;5.38;;;2.30;;
63434;SDS011;68814;50.872;5.306;2023-11-19T00:29:50;2.95;;;2.17;;
63434;SDS011;68814;50.872;5.306;2023-11-19T00:32:16;4.75;;;2.88;;
63434;SDS011;68814;50.872;5.306;2023-11-19T00:34:43;6.88;;;2.50;;
63434;SDS011;68814;50.872;5.306;2023-11-19T00:37:09;4.75;;;2.17;;
63434;SDS011;68814;50.872;5.306;2023-11-19T00:39:35;2.92;;;1.95;;
63434;SDS011;68814;50.872;5.306;2023-11-19T00:42:01;3.65;;;2.47;;
63434;SDS011;68814;50.872;5.306;2023-11-19T00:44:26;4.32;;;2.13;;
63434;SDS011;68814;50.872;5.306;2023-11-19T00:46:52;3.97;;;2.30;;
63434;SDS011;68814;50.872;5.306;2023-11-19T00:49:17;6.63;;;2.95;;
63434;SDS011;68814;50.872;5.306;2023-11-19T00:51:43;5.60;;;2.58;;
63434;SDS011;68814;50.872;5.306;2023-11-19T00:54:10;9.77;;;3.20;;
63434;SDS011;68814;50.872;5.306;2023-11-19T00:56:36;7.43;;;2.90;;
63434;SDS011;68814;50.872;5.306;2023-11-19T00:59:02;9.40;;;2.83;;
63434;SDS011;68814;50.872;5.306;2023-11-19T01:01:28;6.32;;;2.90;;
63434;SDS011;68814;50.872;5.306;2023-11-19T01:03:55;11.50;;;3.00;;
63434;SDS011;68814;50.872;5.306;2023-11-19T01:08:57;7.80;;;2.72;;
63434;SDS011;68814;50.872;5.306;2023-11-19T01:11:23;9.27;;;2.58;;
63434;SDS011;68814;50.872;5.306;2023-11-19T01:13:49;8.18;;;2.42;;
63434;SDS011;68814;50.872;5.306;2023-11-19T01:16:15;15.13;;;2.70;;
63434;SDS011;68814;50.872;5.306;2023-11-19T01:18:41;9.25;;;2.20;;
63434;SDS011;68814;50.872;5.306;2023-11-19T01:21:07;6.75;;;2.53;;
63434;SDS011;68814;50.872;5.306;2023-11-19T01:23:33;9.65;;;2.70;;
63434;SDS011;68814;50.872;5.306;2023-11-19T01:25:59;7.60;;;2.45;;
63434;SDS011;68814;50.872;5.306;2023-11-19T01:28:25;7.43;;;2.30;;
63434;SDS011;68814;50.872;5.306;2023-11-19T01:30:51;11.02;;;2.50;;
63434;SDS011;68814;50.872;5.306;2023-11-19T01:33:17;10.25;;;2.38;;
63434;SDS011;68814;50.872;5.306;2023-11-19T01:35:42;9.90;;;2.67;;
63434;SDS011;68814;50.872;5.306;2023-11-19T01:38:08;13.95;;;2.70;;
63434;SDS011;68814;50.872;5.306;2023-11-19T01:40:34;14.07;;;2.53;;
63434;SDS011;68814;50.872;5.306;2023-11-19T01:43:01;8.25;;;2.22;;
63434;SDS011;68814;50.872;5.306;2023-11-19T01:45:28;12.65;;;2.80;;
63434;SDS011;68814;50.872;5.306;2023-11-19T01:47:58;17.63;;;2.90;;
63434;SDS011;68814;50.872;5.306;2023-11-19T01:50:25;15.90;;;2.42;;
63434;SDS011;68814;50.872;5.306;2023-11-19T01:52:54;10.70;;;2.20;;
63434;SDS011;68814;50.872;5.306;2023-11-19T01:55:22;10.00;;;2.08;;
63434;SDS011;68814;50.872;5.306;2023-11-19T01:57:50;13.02;;;1.63;;
63434;SDS011;68814;50.872;5.306;2023-11-19T02:00:18;17.80;;;2.05;;
63434;SDS011;68814;50.872;5.306;2023-11-19T02:02:45;13.73;;;1.90;;
63434;SDS011;68814;50.872;5.306;2023-11-19T02:05:13;10.35;;;2.28;;
63434;SDS011;68814;50.872;5.306;2023-11-19T02:07:39;16.65;;;2.95;;
63434;SDS011;68814;50.872;5.306;2023-11-19T02:10:05;20.30;;;3.00;;
63434;SDS011;68814;50.872;5.306;2023-11-19T02:12:33;13.70;;;1.80;;
63434;SDS011;68814;50.872;5.306;2023-11-19T02:14:59;14.57;;;2.50;;
63434;SDS011;68814;50.872;5.306;2023-11-19T02:17:28;14.98;;;1.70;;
63434;SDS011;68814;50.872;5.306;2023-11-19T02:19:59;13.02;;;2.25;;
63434;SDS011;68814;50.872;5.306;2023-11-19T02:22:25;17.00;;;2.13;;
63434;SDS011;68814;50.872;5.306;2023-11-19T02:24:51;20.58;;;2.38;;
63434;SDS011;68814;50.872;5.306;2023-11-19T02:27:35;14.65;;;1.90;;
63434;SDS011;68814;50.872;5.306;2023-11-19T02:30:07;16.92;;;2.92;;
63434;SDS011;68814;50.872;5.306;2023-11-19T02:32:33;13.65;;;1.70;;
63434;SDS011;68814;50.872;5.306;2023-11-19T02:35:00;17.92;;;2.05;;
63434;SDS011;68814;50.872;5.306;2023-11-19T02:37:26;18.50;;;2.55;;
63434;SDS011;68814;50.872;5.306;2023-11-19T02:39:53;15.15;;;2.30;;
63434;SDS011;68814;50.872;5.306;2023-11-19T02:42:19;10.70;;;2.00;;
63434;SDS011;68814;50.872;5.306;2023-11-19T02:44:45;13.95;;;2.03;;
63434;SDS011;68814;50.872;5.306;2023-11-19T02:47:11;14.48;;;2.33;;
63434;SDS011;68814;50.872;5.306;2023-11-19T02:49:37;17.42;;;2.10;;
63434;SDS011;68814;50.872;5.306;2023-11-19T02:52:03;15.02;;;2.38;;
63434;SDS011;68814;50.872;5.306;2023-11-19T02:54:31;14.73;;;2.20;;
63434;SDS011;68814;50.872;5.306;2023-11-19T02:57:00;19.08;;;2.60;;
63434;SDS011;68814;50.872;5.306;2023-11-19T02:59:27;14.25;;;2.60;;
63434;SDS011;68814;50.872;5.306;2023-11-19T03:01:57;13.77;;;2.28;;
63434;SDS011;68814;50.872;5.306;2023-11-19T03:04:24;17.67;;;2.40;;
63434;SDS011;68814;50.872;5.306;2023-11-19T03:06:50;20.10;;;2.58;;
63434;SDS011;68814;50.872;5.306;2023-11-19T03:09:18;18.08;;;2.80;;
63434;SDS011;68814;50.872;5.306;2023-11-19T03:11:43;21.25;;;3.28;;
63434;SDS011;68814;50.872;5.306;2023-11-19T03:14:09;17.55;;;2.58;;
63434;SDS011;68814;50.872;5.306;2023-11-19T03:16:35;19.55;;;2.80;;
63434;SDS011;68814;50.872;5.306;2023-11-19T03:19:00;18.63;;;2.70;;
63434;SDS011;68814;50.872;5.306;2023-11-19T03:21:27;24.88;;;2.75;;
63434;SDS011;68814;50.872;5.306;2023-11-19T03:23:56;18.25;;;2.80;;
63434;SDS011;68814;50.872;5.306;2023-11-19T03:26:25;17.98;;;2.97;;
63434;SDS011;68814;50.872;5.306;2023-11-19T03:28:52;13.45;;;2.40;;
63434;SDS011;68814;50.872;5.306;2023-11-19T03:31:18;15.02;;;2.50;;
63434;SDS011;68814;50.872;5.306;2023-11-19T03:33:44;22.02;;;2.50;;
63434;SDS011;68814;50.872;5.306;2023-11-19T03:36:10;17.27;;;2.35;;
63434;SDS011;68814;50.872;5.306;2023-11-19T03:38:36;22.77;;;3.03;;
63434;SDS011;68814;50.872;5.306;2023-11-19T03:41:09;22.90;;;2.70;;
63434;SDS011;68814;50.872;5.306;2023-11-19T03:43:44;13.18;;;1.70;;
63434;SDS011;68814;50.872;5.306;2023-11-19T03:46:17;18.48;;;2.63;;
63434;SDS011;68814;50.872;5.306;2023-11-19T03:48:43;20.55;;;2.63;;
63434;SDS011;68814;50.872;5.306;2023-11-19T03:51:08;15.20;;;2.13;;
63434;SDS011;68814;50.872;5.306;2023-11-19T03:53:34;14.70;;;2.55;;
63434;SDS011;68814;50.872;5.306;2023-11-19T03:56:00;21.67;;;3.25;;
63434;SDS011;68814;50.872;5.306;2023-11-19T03:58:26;18.08;;;1.98;;
63434;SDS011;68814;50.872;5.306;2023-11-19T04:00:52;20.33;;;2.95;;
63434;SDS011;68814;50.872;5.306;2023-11-19T04:03:17;15.68;;;2.67;;
63434;SDS011;68814;50.872;5.306;2023-11-19T04:05:44;13.45;;;3.00;;
63434;SDS011;68814;50.872;5.306;2023-11-19T04:08:10;13.93;;;2.78;;
63434;SDS011;68814;50.872;5.306;2023-11-19T04:10:35;20.20;;;2.30;;
63434;SDS011;68814;50.872;5.306;2023-11-19T04:13:01;31.70;;;3.72;;
63434;SDS011;68814;50.872;5.306;2023-11-19T04:15:27;19.42;;;2.92;;
63434;SDS011;68814;50.872;5.306;2023-11-19T04:17:52;15.90;;;3.05;;
63434;SDS011;68814;50.872;5.306;2023-11-19T04:20:18;19.20;;;2.45;;
63434;SDS011;68814;50.872;5.306;2023-11-19T04:22:44;18.35;;;2.78;;
63434;SDS011;68814;50.872;5.306;2023-11-19T04:25:09;20.40;;;3.03;;
63434;SDS011;68814;50.872;5.306;2023-11-19T04:27:36;19.55;;;2.40;;
63434;SDS011;68814;50.872;5.306;2023-11-19T04:30:01;21.65;;;2.47;;
63434;SDS011;68814;50.872;5.306;2023-11-19T04:32:28;17.05;;;2.50;;
63434;SDS011;68814;50.872;5.306;2023-11-19T04:34:54;20.08;;;2.45;;
63434;SDS011;68814;50.872;5.306;2023-11-19T04:37:20;22.75;;;2.17;;
63434;SDS011;68814;50.872;5.306;2023-11-19T04:39:45;26.48;;;3.28;;
63434;SDS011;68814;50.872;5.306;2023-11-19T04:42:11;13.20;;;2.55;;
63434;SDS011;68814;50.872;5.306;2023-11-19T04:44:37;24.20;;;3.20;;
63434;SDS011;68814;50.872;5.306;2023-11-19T04:47:03;22.40;;;3.08;;
63434;SDS011;68814;50.872;5.306;2023-11-19T04:49:28;23.30;;;4.68;;
63434;SDS011;68814;50.872;5.306;2023-11-19T04:51:55;19.73;;;3.08;;
63434;SDS011;68814;50.872;5.306;2023-11-19T04:54:21;19.63;;;2.53;;
63434;SDS011;68814;50.872;5.306;2023-11-19T04:56:47;20.85;;;3.67;;
63434;SDS011;68814;50.872;5.306;2023-11-19T04:59:13;18.92;;;2.40;;
63434;SDS011;68814;50.872;5.306;2023-11-19T05:01:39;22.67;;;2.95;;
63434;SDS011;68814;50.872;5.306;2023-11-19T05:04:05;27.40;;;4.03;;
63434;SDS011;68814;50.872;5.306;2023-11-19T05:06:32;22.88;;;3.15;;
63434;SDS011;68814;50.872;5.306;2023-11-19T05:08:58;27.38;;;3.13;;
63434;SDS011;68814;50.872;5.306;2023-11-19T05:11:34;19.35;;;2.47;;
63434;SDS011;68814;50.872;5.306;2023-11-19T05:14:01;26.63;;;2.85;;
63434;SDS011;68814;50.872;5.306;2023-11-19T05:16:29;23.55;;;2.80;;
63434;SDS011;68814;50.872;5.306;2023-11-19T05:18:54;28.00;;;3.05;;
63434;SDS011;68814;50.872;5.306;2023-11-19T05:21:20;20.50;;;3.42;;
63434;SDS011;68814;50.872;5.306;2023-11-19T05:23:46;27.98;;;4.15;;
63434;SDS011;68814;50.872;5.306;2023-11-19T05:26:18;25.48;;;3.28;;
63434;SDS011;68814;50.872;5.306;2023-11-19T05:28:45;19.48;;;2.80;;
63434;SDS011;68814;50.872;5.306;2023-11-19T05:31:11;24.27;;;3.20;;
63434;SDS011;68814;50.872;5.306;2023-11-19T05:33:36;23.10;;;3.25;;
63434;SDS011;68814;50.872;5.306;2023-11-19T05:36:02;32.65;;;3.30;;
63434;SDS011;68814;50.872;5.306;2023-11-19T05:38:29;26.08;;;3.78;;
63434;SDS011;68814;50.872;5.306;2023-11-19T05:40:55;25.55;;;3.25;;
63434;SDS011;68814;50.872;5.306;2023-11-19T05:43:20;18.20;;;3.03;;
63434;SDS011;68814;50.872;5.306;2023-11-19T05:45:46;26.50;;;3.55;;
63434;SDS011;68814;50.872;5.306;2023-11-19T05:48:12;20.98;;;3.80;;
63434;SDS011;68814;50.872;5.306;2023-11-19T05:50:38;21.73;;;2.88;;
63434;SDS011;68814;50.872;5.306;2023-11-19T05:53:04;23.10;;;3.00;;
63434;SDS011;68814;50.872;5.306;2023-11-19T05:55:33;17.13;;;2.88;;
63434;SDS011;68814;50.872;5.306;2023-11-19T05:57:59;22.90;;;3.42;;
63434;SDS011;68814;50.872;5.306;2023-11-19T06:00:25;18.00;;;3.28;;
63434;SDS011;68814;50.872;5.306;2023-11-19T06:02:51;21.23;;;4.07;;
63434;SDS011;68814;50.872;5.306;2023-11-19T06:05:17;27.25;;;3.88;;
63434;SDS011;68814;50.872;5.306;2023-11-19T06:07:43;26.20;;;2.83;;
63434;SDS011;68814;50.872;5.306;2023-11-19T06:10:09;20.98;;;2.75;;
63434;SDS011;68814;50.872;5.306;2023-11-19T06:12:36;25.52;;;3.35;;
63434;SDS011;68814;50.872;5.306;2023-11-19T06:15:02;21.70;;;2.83;;
63434;SDS011;68814;50.872;5.306;2023-11-19T06:17:30;65.85;;;6.00;;
63434;SDS011;68814;50.872;5.306;2023-11-19T06:19:55;22.05;;;3.80;;
63434;SDS011;68814;50.872;5.306;2023-11-19T06:22:21;23.35;;;3.92;;
63434;SDS011;68814;50.872;5.306;2023-11-19T06:24:46;28.30;;;3.53;;
63434;SDS011;68814;50.872;5.306;2023-11-19T06:27:12;20.15;;;3.53;;
63434;SDS011;68814;50.872;5.306;2023-11-19T06:29:38;27.95;;;2.75;;
63434;SDS011;68814;50.872;5.306;2023-11-19T06:32:05;21.90;;;3.35;;
63434;SDS011;68814;50.872;5.306;2023-11-19T06:34:33;23.58;;;3.70;;
63434;SDS011;68814;50.872;5.306;2023-11-19T06:36:59;28.02;;;3.70;;
63434;SDS011;68814;50.872;5.306;2023-11-19T06:39:24;21.52;;;3.13;;
63434;SDS011;68814;50.872;5.306;2023-11-19T06:41:50;27.88;;;3.90;;
63434;SDS011;68814;50.872;5.306;2023-11-19T06:44:17;26.08;;;3.22;;
63434;SDS011;68814;50.872;5.306;2023-11-19T06:46:42;36.63;;;3.75;;
63434;SDS011;68814;50.872;5.306;2023-11-19T06:49:08;32.20;;;3.75;;
63434;SDS011;68814;50.872;5.306;2023-11-19T06:51:34;26.10;;;3.15;;
63434;SDS011;68814;50.872;5.306;2023-11-19T06:54:00;26.58;;;3.63;;
63434;SDS011;68814;50.872;5.306;2023-11-19T06:56:26;27.70;;;3.42;;
63434;SDS011;68814;50.872;5.306;2023-11-19T06:58:51;27.58;;;2.88;;
63434;SDS011;68814;50.872;5.306;2023-11-19T07:01:18;35.58;;;5.55;;
63434;SDS011;68814;50.872;5.306;2023-11-19T07:03:45;33.92;;;3.88;;
63434;SDS011;68814;50.872;5.306;2023-11-19T07:06:13;23.65;;;3.20;;
63434;SDS011;68814;50.872;5.306;2023-11-19T07:08:42;24.40;;;3.80;;
63434;SDS011;68814;50.872;5.306;2023-11-19T07:11:12;25.25;;;3.42;;
63434;SDS011;68814;50.872;5.306;2023-11-19T07:13:39;32.85;;;3.97;;
63434;SDS011;68814;50.872;5.306;2023-11-19T07:16:06;33.10;;;4.28;;
63434;SDS011;68814;50.872;5.306;2023-11-19T07:18:34;26.48;;;3.50;;
63434;SDS011;68814;50.872;5.306;2023-11-19T07:21:00;28.05;;;3.65;;
63434;SDS011;68814;50.872;5.306;2023-11-19T07:26:06;26.27;;;3.88;;
63434;SDS011;68814;50.872;5.306;2023-11-19T07:28:35;23.38;;;3.20;;
63434;SDS011;68814;50.872;5.306;2023-11-19T07:31:01;21.48;;;3.15;;
63434;SDS011;68814;50.872;5.306;2023-11-19T07:33:27;29.30;;;4.03;;
63434;SDS011;68814;50.872;5.306;2023-11-19T07:35:53;30.17;;;3.95;;
63434;SDS011;68814;50.872;5.306;2023-11-19T07:38:18;29.33;;;3.72;;
63434;SDS011;68814;50.872;5.306;2023-11-19T07:40:44;27.05;;;3.65;;
63434;SDS011;68814;50.872;5.306;2023-11-19T07:43:09;26.38;;;3.83;;
63434;SDS011;68814;50.872;5.306;2023-11-19T07:45:36;17.05;;;2.38;;
63434;SDS011;68814;50.872;5.306;2023-11-19T07:48:02;33.15;;;3.58;;
63434;SDS011;68814;50.872;5.306;2023-11-19T07:50:28;24.15;;;3.78;;
63434;SDS011;68814;50.872;5.306;2023-11-19T07:52:56;26.95;;;3.28;;
63434;SDS011;68814;50.872;5.306;2023-11-19T07:55:22;35.13;;;3.50;;
63434;SDS011;68814;50.872;5.306;2023-11-19T07:57:47;29.58;;;3.75;;
63434;SDS011;68814;50.872;5.306;2023-11-19T08:00:14;30.02;;;3.40;;
63434;SDS011;68814;50.872;5.306;2023-11-19T08:02:41;25.67;;;3.58;;
63434;SDS011;68814;50.872;5.306;2023-11-19T08:05:07;27.52;;;3.30;;
63434;SDS011;68814;50.872;5.306;2023-11-19T08:07:33;32.45;;;3.47;;
63434;SDS011;68814;50.872;5.306;2023-11-19T08:09:58;27.23;;;3.78;;
63434;SDS011;68814;50.872;5.306;2023-11-19T08:12:25;36.75;;;4.38;;
63434;SDS011;68814;50.872;5.306;2023-11-19T08:14:50;38.90;;;5.80;;
63434;SDS011;68814;50.872;5.306;2023-11-19T08:17:16;31.95;;;4.20;;
63434;SDS011;68814;50.872;5.306;2023-11-19T08:19:42;32.05;;;4.03;;
63434;SDS011;68814;50.872;5.306;2023-11-19T08:22:07;34.60;;;4.20;;
63434;SDS011;68814;50.872;5.306;2023-11-19T08:24:34;34.25;;;3.88;;
63434;SDS011;68814;50.872;5.306;2023-11-19T08:27:00;32.17;;;4.45;;
63434;SDS011;68814;50.872;5.306;2023-11-19T08:29:25;31.60;;;4.10;;
63434;SDS011;68814;50.872;5.306;2023-11-19T08:31:52;31.40;;;4.35;;
63434;SDS011;68814;50.872;5.306;2023-11-19T08:34:18;24.58;;;3.15;;
63434;SDS011;68814;50.872;5.306;2023-11-19T08:36:43;93.72;;;10.07;;
63434;SDS011;68814;50.872;5.306;2023-11-19T08:39:09;34.80;;;3.67;;
63434;SDS011;68814;50.872;5.306;2023-11-19T08:41:35;28.40;;;3.42;;
63434;SDS011;68814;50.872;5.306;2023-11-19T08:44:02;30.25;;;3.42;;
63434;SDS011;68814;50.872;5.306;2023-11-19T08:46:27;31.38;;;4.15;;
63434;SDS011;68814;50.872;5.306;2023-11-19T08:48:53;22.05;;;5.40;;
63434;SDS011;68814;50.872;5.306;2023-11-19T08:51:22;24.90;;;4.30;;
63434;SDS011;68814;50.872;5.306;2023-11-19T10:48:12;28.95;;;3.85;;
63434;SDS011;68814;50.872;5.306;2023-11-19T10:50:38;36.50;;;3.72;;
63434;SDS011;68814;50.872;5.306;2023-11-19T10:53:06;17.95;;;3.20;;
63434;SDS011;68814;50.872;5.306;2023-11-19T10:55:38;23.83;;;3.10;;
63434;SDS011;68814;50.872;5.306;2023-11-19T10:58:06;26.27;;;3.35;;
63434;SDS011;68814;50.872;5.306;2023-11-19T11:03:20;25.88;;;3.15;;
63434;SDS011;68814;50.872;5.306;2023-11-19T11:05:50;19.65;;;3.33;;
63434;SDS011;68814;50.872;5.306;2023-11-19T11:08:17;23.33;;;3.10;;
63434;SDS011;68814;50.872;5.306;2023-11-19T11:10:54;26.77;;;3.40;;
63434;SDS011;68814;50.872;5.306;2023-11-19T11:13:22;34.50;;;3.67;;
63434;SDS011;68814;50.872;5.306;2023-11-19T11:15:49;23.00;;;3.55;;
63434;SDS011;68814;50.872;5.306;2023-11-19T11:18:16;21.00;;;3.10;;
63434;SDS011;68814;50.872;5.306;2023-11-19T11:21:22;24.85;;;2.90;;
63434;SDS011;68814;50.872;5.306;2023-11-19T11:27:14;17.17;;;2.35;;
63434;SDS011;68814;50.872;5.306;2023-11-19T12:21:47;18.50;;;2.58;;
63434;SDS011;68814;50.872;5.306;2023-11-19T12:24:13;27.13;;;4.22;;
63434;SDS011;68814;50.872;5.306;2023-11-19T12:26:40;27.23;;;3.70;;
63434;SDS011;68814;50.872;5.306;2023-11-19T12:29:08;27.48;;;3.30;;
63434;SDS011;68814;50.872;5.306;2023-11-19T12:31:33;22.30;;;3.38;;
63434;SDS011;68814;50.872;5.306;2023-11-19T12:34:00;22.88;;;3.38;;
63434;SDS011;68814;50.872;5.306;2023-11-19T12:36:30;22.35;;;3.10;;
63434;SDS011;68814;50.872;5.306;2023-11-19T12:38:57;23.90;;;3.47;;
63434;SDS011;68814;50.872;5.306;2023-11-19T12:41:23;24.88;;;3.10;;
63434;SDS011;68814;50.872;5.306;2023-11-19T12:43:50;18.50;;;2.97;;
63434;SDS011;68814;50.872;5.306;2023-11-19T12:46:22;18.35;;;3.67;;
63434;SDS011;68814;50.872;5.306;2023-11-19T12:48:49;20.02;;;3.38;;
63434;SDS011;68814;50.872;5.306;2023-11-19T12:51:15;18.25;;;2.90;;
63434;SDS011;68814;50.872;5.306;2023-11-19T12:53:53;22.40;;;3.58;;
63434;SDS011;68814;50.872;5.306;2023-11-19T12:56:19;16.45;;;2.20;;
63434;SDS011;68814;50.872;5.306;2023-11-19T13:30:43;25.52;;;3.40;;
63434;SDS011;68814;50.872;5.306;2023-11-19T13:41:02;18.17;;;2.58;;
63434;SDS011;68814;50.872;5.306;2023-11-19T14:01:35;22.98;;;3.38;;
63434;SDS011;68814;50.872;5.306;2023-11-19T14:11:54;20.27;;;4.05;;
63434;SDS011;68814;50.872;5.306;2023-11-19T14:22:06;26.67;;;3.72;;
63434;SDS011;68814;50.872;5.306;2023-11-19T14:24:32;23.08;;;3.10;;
63434;SDS011;68814;50.872;5.306;2023-11-19T14:50:16;21.92;;;2.65;;
63434;SDS011;68814;50.872;5.306;2023-11-19T15:08:14;21.65;;;3.30;;
63434;SDS011;68814;50.872;5.306;2023-11-19T15:10:41;30.17;;;4.32;;
63434;SDS011;68814;50.872;5.306;2023-11-19T15:13:08;32.47;;;3.33;;
63434;SDS011;68814;50.872;5.306;2023-11-19T15:15:34;26.50;;;3.45;;
63434;SDS011;68814;50.872;5.306;2023-11-19T15:18:00;28.42;;;3.47;;
63434;SDS011;68814;50.872;5.306;2023-11-19T15:20:26;21.23;;;3.55;;
63434;SDS011;68814;50.872;5.306;2023-11-19T15:22:55;22.10;;;3.33;;
63434;SDS011;68814;50.872;5.306;2023-11-19T15:25:21;18.58;;;3.17;;
63434;SDS011;68814;50.872;5.306;2023-11-19T15:27:48;24.13;;;2.90;;
63434;SDS011;68814;50.872;5.306;2023-11-19T15:32:49;32.03;;;3.78;;
63434;SDS011;68814;50.872;5.306;2023-11-19T15:37:51;44.55;;;4.13;;
63434;SDS011;68814;50.872;5.306;2023-11-19T15:43:32;26.67;;;2.95;;
63434;SDS011;68814;50.872;5.306;2023-11-19T15:51:12;31.80;;;3.65;;
63434;SDS011;68814;50.872;5.306;2023-11-19T16:09:09;23.17;;;3.70;;
63434;SDS011;68814;50.872;5.306;2023-11-19T16:14:17;26.40;;;3.15;;
63434;SDS011;68814;50.872;5.306;2023-11-19T18:00:14;27.80;;;5.13;;
63434;SDS011;68814;50.872;5.306;2023-11-19T18:02:47;20.90;;;3.70;;
63434;SDS011;68814;50.872;5.306;2023-11-19T18:07:40;20.60;;;3.10;;
63434;SDS011;68814;50.872;5.306;2023-11-19T18:10:07;27.15;;;4.03;;
63434;SDS011;68814;50.872;5.306;2023-11-19T18:12:33;22.48;;;3.05;;
63434;SDS011;68814;50.872;5.306;2023-11-19T18:14:59;20.50;;;2.90;;
63434;SDS011;68814;50.872;5.306;2023-11-19T18:17:25;13.27;;;3.67;;
63434;SDS011;68814;50.872;5.306;2023-11-19T18:19:51;28.90;;;4.22;;
63434;SDS011;68814;50.872;5.306;2023-11-19T18:22:17;24.40;;;3.50;;
63434;SDS011;68814;50.872;5.306;2023-11-19T18:24:43;21.40;;;2.90;;
63434;SDS011;68814;50.872;5.306;2023-11-19T18:27:09;23.88;;;3.35;;
63434;SDS011;68814;50.872;5.306;2023-11-19T18:29:34;23.05;;;3.22;;
63434;SDS011;68814;50.872;5.306;2023-11-19T18:32:00;18.70;;;2.88;;
63434;SDS011;68814;50.872;5.306;2023-11-19T18:34:27;25.63;;;3.15;;
63434;SDS011;68814;50.872;5.306;2023-11-19T18:36:53;23.17;;;3.42;;
63434;SDS011;68814;50.872;5.306;2023-11-19T18:39:19;24.58;;;3.63;;
63434;SDS011;68814;50.872;5.306;2023-11-19T18:41:45;20.70;;;3.25;;
63434;SDS011;68814;50.872;5.306;2023-11-19T18:44:10;27.25;;;4.00;;
63434;SDS011;68814;50.872;5.306;2023-11-19T18:46:38;15.70;;;2.97;;
63434;SDS011;68814;50.872;5.306;2023-11-19T18:49:04;22.90;;;3.10;;
63434;SDS011;68814;50.872;5.306;2023-11-19T18:51:31;25.45;;;3.40;;
63434;SDS011;68814;50.872;5.306;2023-11-19T18:53:56;25.58;;;2.70;;
63434;SDS011;68814;50.872;5.306;2023-11-19T18:56:23;22.67;;;2.92;;
63434;SDS011;68814;50.872;5.306;2023-11-19T18:58:49;30.95;;;4.38;;
63434;SDS011;68814;50.872;5.306;2023-11-19T19:01:15;26.10;;;3.60;;
63434;SDS011;68814;50.872;5.306;2023-11-19T19:03:42;28.85;;;3.50;;
63434;SDS011;68814;50.872;5.306;2023-11-19T19:06:14;24.15;;;3.15;;
63434;SDS011;68814;50.872;5.306;2023-11-19T19:08:40;35.47;;;3.45;;
63434;SDS011;68814;50.872;5.306;2023-11-19T19:11:11;18.98;;;2.63;;
63434;SDS011;68814;50.872;5.306;2023-11-19T19:13:38;25.13;;;3.03;;
63434;SDS011;68814;50.872;5.306;2023-11-19T19:16:07;22.65;;;2.97;;
63434;SDS011;68814;50.872;5.306;2023-11-19T19:18:33;20.75;;;2.97;;
63434;SDS011;68814;50.872;5.306;2023-11-19T19:21:00;24.02;;;3.95;;
63434;SDS011;68814;50.872;5.306;2023-11-19T19:23:26;18.77;;;2.58;;
63434;SDS011;68814;50.872;5.306;2023-11-19T19:25:54;11.85;;;1.70;;
63434;SDS011;68814;50.872;5.306;2023-11-19T19:28:20;17.88;;;2.42;;
63434;SDS011;68814;50.872;5.306;2023-11-19T19:30:45;17.48;;;2.70;;
63434;SDS011;68814;50.872;5.306;2023-11-19T19:33:13;16.05;;;2.35;;
63434;SDS011;68814;50.872;5.306;2023-11-19T19:35:39;17.70;;;2.65;;
63434;SDS011;68814;50.872;5.306;2023-11-19T19:38:04;20.73;;;2.40;;
63434;SDS011;68814;50.872;5.306;2023-11-19T19:40:33;16.67;;;2.17;;
63434;SDS011;68814;50.872;5.306;2023-11-19T19:42:59;18.15;;;2.45;;
63434;SDS011;68814;50.872;5.306;2023-11-19T19:45:25;16.48;;;2.78;;
63434;SDS011;68814;50.872;5.306;2023-11-19T19:47:51;24.17;;;4.15;;
63434;SDS011;68814;50.872;5.306;2023-11-19T19:50:17;17.85;;;2.40;;
63434;SDS011;68814;50.872;5.306;2023-11-19T19:52:43;19.63;;;3.20;;
63434;SDS011;68814;50.872;5.306;2023-11-19T19:55:09;19.17;;;2.00;;
63434;SDS011;68814;50.872;5.306;2023-11-19T19:57:35;23.25;;;3.22;;
63434;SDS011;68814;50.872;5.306;2023-11-19T20:00:04;20.98;;;2.80;;
63434;SDS011;68814;50.872;5.306;2023-11-19T20:02:34;17.88;;;2.72;;
63434;SDS011;68814;50.872;5.306;2023-11-19T20:05:00;13.15;;;2.20;;
63434;SDS011;68814;50.872;5.306;2023-11-19T20:07:26;17.75;;;2.60;;
63434;SDS011;68814;50.872;5.306;2023-11-19T20:09:52;24.00;;;2.33;;
63434;SDS011;68814;50.872;5.306;2023-11-19T20:12:18;15.77;;;2.42;;
63434;SDS011;68814;50.872;5.306;2023-11-19T20:14:44;22.65;;;2.80;;
63434;SDS011;68814;50.872;5.306;2023-11-19T20:17:09;20.10;;;3.78;;
63434;SDS011;68814;50.872;5.306;2023-11-19T20:19:37;20.25;;;3.10;;
63434;SDS011;68814;50.872;5.306;2023-11-19T20:22:03;20.98;;;2.38;;
63434;SDS011;68814;50.872;5.306;2023-11-19T20:24:29;25.17;;;3.17;;
63434;SDS011;68814;50.872;5.306;2023-11-19T20:26:55;17.05;;;2.45;;
63434;SDS011;68814;50.872;5.306;2023-11-19T20:29:24;15.52;;;2.97;;
63434;SDS011;68814;50.872;5.306;2023-11-19T20:31:50;14.88;;;2.15;;
63434;SDS011;68814;50.872;5.306;2023-11-19T20:34:15;20.10;;;3.25;;
63434;SDS011;68814;50.872;5.306;2023-11-19T20:36:41;12.45;;;2.17;;
63434;SDS011;68814;50.872;5.306;2023-11-19T20:39:07;17.98;;;2.63;;
63434;SDS011;68814;50.872;5.306;2023-11-19T20:41:33;21.27;;;2.67;;
63434;SDS011;68814;50.872;5.306;2023-11-19T20:43:59;13.68;;;2.60;;
63434;SDS011;68814;50.872;5.306;2023-11-19T20:46:25;13.65;;;2.40;;
63434;SDS011;68814;50.872;5.306;2023-11-19T20:48:51;19.20;;;2.55;;
63434;SDS011;68814;50.872;5.306;2023-11-19T20:51:17;16.65;;;2.58;;
63434;SDS011;68814;50.872;5.306;2023-11-19T20:53:43;12.98;;;2.20;;
63434;SDS011;68814;50.872;5.306;2023-11-19T20:56:09;15.88;;;2.58;;
63434;SDS011;68814;50.872;5.306;2023-11-19T20:58:35;22.08;;;3.22;;
63434;SDS011;68814;50.872;5.306;2023-11-19T21:01:01;17.33;;;2.10;;
63434;SDS011;68814;50.872;5.306;2023-11-19T21:03:31;16.33;;;2.00;;
63434;SDS011;68814;50.872;5.306;2023-11-19T21:06:01;16.08;;;2.00;;
63434;SDS011;68814;50.872;5.306;2023-11-19T21:08:29;14.45;;;2.03;;
63434;SDS011;68814;50.872;5.306;2023-11-19T21:10:55;13.38;;;1.45;;
63434;SDS011;68814;50.872;5.306;2023-11-19T21:13:23;11.50;;;1.50;;
63434;SDS011;68814;50.872;5.306;2023-11-19T21:15:49;11.38;;;1.60;;
63434;SDS011;68814;50.872;5.306;2023-11-19T21:18:15;13.80;;;1.52;;
63434;SDS011;68814;50.872;5.306;2023-11-19T21:20:41;17.73;;;1.90;;
63434;SDS011;68814;50.872;5.306;2023-11-19T21:23:07;11.35;;;1.80;;
63434;SDS011;68814;50.872;5.306;2023-11-19T21:25:33;12.02;;;1.60;;
63434;SDS011;68814;50.872;5.306;2023-11-19T21:27:59;10.70;;;1.55;;
63434;SDS011;68814;50.872;5.306;2023-11-19T21:30:25;14.23;;;1.63;;
63434;SDS011;68814;50.872;5.306;2023-11-19T21:32:51;13.85;;;1.92;;
63434;SDS011;68814;50.872;5.306;2023-11-19T21:35:17;7.80;;;1.50;;
63434;SDS011;68814;50.872;5.306;2023-11-19T21:37:43;12.20;;;2.40;;
63434;SDS011;68814;50.872;5.306;2023-11-19T21:40:09;12.68;;;2.53;;